Time;durP1;ratioP1;P1;durP2;ratioP2;P2;SDS_P1;SDS_P2;PMS_P1;PMS_P2;Temp;Humidity;BMP_temperature;BMP_pressure;BME280_temperature;BME280_humidity;BME280_pressure;Samples;Min_cycle;Max_cycle;Signal;HPM_P1;HPM_P2
2023/09/13 00:00:54;;;;;;;1.10;1.10;;;17.40;99.90;;;;;;4969294;28;20058;-75
2023/09/13 00:03:20;;;;;;;1.75;1.75;;;17.30;99.90;;;;;;4994165;28;20054;-75
2023/09/13 00:05:47;;;;;;;1.30;1.30;;;17.30;99.90;;;;;;4981883;28;20041;-76
2023/09/13 00:08:14;;;;;;;0.90;0.90;;;17.30;99.90;;;;;;4977084;28;20043;-75
2023/09/13 00:10:44;;;;;;;0.93;0.93;;;17.30;99.90;;;;;;4988508;28;20043;-75
2023/09/13 00:13:12;;;;;;;1.48;1.48;;;17.10;99.90;;;;;;4995960;28;20053;-75
2023/09/13 00:15:43;;;;;;;0.80;0.80;;;17.10;99.90;;;;;;4970866;28;20106;-75
2023/09/13 00:18:14;;;;;;;0.80;0.80;;;17.20;99.90;;;;;;4973398;28;20039;-74
2023/09/13 00:20:42;;;;;;;0.70;0.70;;;17.10;99.90;;;;;;4990617;28;20310;-75
2023/09/13 00:23:09;;;;;;;0.90;0.90;;;17.30;99.90;;;;;;4956835;28;20057;-76
2023/09/13 00:25:36;;;;;;;0.80;0.80;;;17.20;99.90;;;;;;4987965;28;20092;-74
2023/09/13 00:28:02;;;;;;;0.80;0.80;;;17.30;99.90;;;;;;4992386;28;20102;-74
2023/09/13 00:30:29;;;;;;;0.80;0.80;;;17.30;99.90;;;;;;4983717;28;20048;-76
2023/09/13 00:32:56;;;;;;;1.00;1.00;;;17.30;99.90;;;;;;4972271;28;20577;-75
2023/09/13 00:35:23;;;;;;;1.25;1.25;;;17.30;99.90;;;;;;4980778;28;20061;-75
2023/09/13 00:37:50;;;;;;;1.20;1.20;;;17.30;99.90;;;;;;4978508;28;20709;-75
2023/09/13 00:40:17;;;;;;;1.70;1.70;;;17.40;99.90;;;;;;4975905;28;20052;-75
2023/09/13 00:42:44;;;;;;;1.60;1.60;;;17.50;99.90;;;;;;4963248;28;20519;-75
2023/09/13 00:45:13;;;;;;;1.40;1.40;;;17.40;99.90;;;;;;4974047;28;20047;-75
2023/09/13 00:47:41;;;;;;;1.70;1.70;;;17.40;99.90;;;;;;4972027;28;20034;-75
2023/09/13 00:50:12;;;;;;;2.00;2.00;;;17.30;99.90;;;;;;4964426;28;20069;-74
2023/09/13 00:52:41;;;;;;;1.90;1.90;;;17.30;99.90;;;;;;4980255;28;20051;-75
2023/09/13 00:55:09;;;;;;;2.08;2.08;;;17.40;99.90;;;;;;4976022;28;20058;-75
2023/09/13 00:57:36;;;;;;;2.13;2.13;;;17.40;99.90;;;;;;4941756;28;20746;-76
2023/09/13 01:00:10;;;;;;;10.52;3.50;;;17.50;99.90;;;;;;4970682;28;20030;-75
2023/09/13 01:02:41;;;;;;;2.60;2.50;;;17.50;99.90;;;;;;4966837;28;20445;-75
2023/09/13 01:05:11;;;;;;;2.95;2.85;;;17.40;99.90;;;;;;4977180;28;20061;-75
2023/09/13 01:07:40;;;;;;;2.75;2.65;;;17.40;99.90;;;;;;4967445;28;20046;-75
2023/09/13 01:10:07;;;;;;;2.72;2.63;;;17.40;99.90;;;;;;4957747;28;20054;-75
2023/09/13 01:12:34;;;;;;;2.97;2.88;;;17.40;99.90;;;;;;4963541;28;20131;-75
2023/09/13 01:15:06;;;;;;;2.90;2.80;;;17.50;99.90;;;;;;4974221;28;20415;-74
2023/09/13 01:17:47;;;;;;;2.70;2.60;;;17.50;99.90;;;;;;4966306;28;20062;-74
2023/09/13 01:20:49;;;;;;;3.00;2.90;;;17.40;99.90;;;;;;4980533;28;20056;-74
2023/09/13 01:23:35;;;;;;;3.10;3.00;;;17.50;99.90;;;;;;4944383;28;20050;-75
2023/09/13 01:26:15;;;;;;;2.90;2.80;;;17.50;99.90;;;;;;4954175;28;20033;-75
2023/09/13 01:28:47;;;;;;;3.38;3.28;;;17.40;99.90;;;;;;4949282;28;20054;-74
2023/09/13 01:31:20;;;;;;;2.90;2.80;;;17.30;99.90;;;;;;4962205;28;20117;-74
2023/09/13 01:33:48;;;;;;;3.10;3.00;;;17.30;99.90;;;;;;4959657;28;20051;-75
2023/09/13 01:36:15;;;;;;;3.10;3.00;;;17.30;99.90;;;;;;4963781;28;20047;-75
2023/09/13 01:38:42;;;;;;;3.08;2.97;;;17.30;99.90;;;;;;4954540;28;20046;-75
2023/09/13 01:41:30;;;;;;;3.00;2.90;;;17.20;99.90;;;;;;4959983;28;20088;-75
2023/09/13 01:43:58;;;;;;;3.88;3.78;;;17.30;99.90;;;;;;4966793;28;20053;-75
2023/09/13 01:46:34;;;;;;;3.17;3.08;;;17.40;99.90;;;;;;4963910;28;20050;-75
2023/09/13 01:49:04;;;;;;;3.20;3.10;;;17.40;99.90;;;;;;4985134;28;20045;-76
2023/09/13 01:51:32;;;;;;;3.03;2.92;;;17.30;99.90;;;;;;4972823;28;20043;-75
2023/09/13 01:54:00;;;;;;;3.80;3.60;;;17.30;99.90;;;;;;4953385;28;20069;-75
2023/09/13 01:56:26;;;;;;;3.40;3.30;;;17.30;99.90;;;;;;4991434;28;20057;-75
2023/09/13 01:58:53;;;;;;;3.30;3.20;;;17.30;99.90;;;;;;4956628;28;20047;-75
2023/09/13 02:01:21;;;;;;;3.58;3.47;;;17.30;99.90;;;;;;4950509;28;20043;-75
2023/09/13 02:03:48;;;;;;;3.40;3.30;;;17.30;99.90;;;;;;4958499;28;20936;-75
2023/09/13 02:06:14;;;;;;;3.80;3.70;;;17.30;99.90;;;;;;4976093;28;20500;-74
2023/09/13 02:08:42;;;;;;;3.80;3.70;;;17.30;99.90;;;;;;4967903;28;20671;-75
2023/09/13 02:11:10;;;;;;;3.50;3.40;;;17.30;99.90;;;;;;4974001;28;20046;-74
2023/09/13 02:13:37;;;;;;;3.47;3.38;;;17.30;99.90;;;;;;4969983;28;20609;-76
2023/09/13 02:16:04;;;;;;;3.20;3.10;;;17.30;99.90;;;;;;4955958;28;20042;-74
2023/09/13 02:18:32;;;;;;;3.30;3.20;;;17.20;99.90;;;;;;4975378;28;20042;-75
2023/09/13 02:20:59;;;;;;;3.75;3.65;;;17.30;99.90;;;;;;4958540;28;20050;-75
2023/09/13 02:23:26;;;;;;;3.50;3.40;;;17.30;99.90;;;;;;4972818;28;20042;-74
2023/09/13 02:25:52;;;;;;;3.60;3.50;;;17.30;99.90;;;;;;4968200;28;20065;-75
2023/09/13 02:28:19;;;;;;;3.65;3.55;;;17.30;99.90;;;;;;4952123;28;20054;-75
2023/09/13 02:30:47;;;;;;;3.60;3.50;;;17.30;99.90;;;;;;4942833;28;20108;-76
2023/09/13 02:33:14;;;;;;;3.42;3.33;;;17.30;99.90;;;;;;4974984;28;20051;-76
2023/09/13 02:35:40;;;;;;;4.85;4.65;;;17.30;99.90;;;;;;4975945;28;20129;-75
2023/09/13 02:38:07;;;;;;;4.75;4.50;;;17.30;99.90;;;;;;4961810;28;20584;-76
2023/09/13 02:40:37;;;;;;;3.72;3.63;;;17.30;99.90;;;;;;5028917;28;20047;-75
2023/09/13 02:43:04;;;;;;;3.70;3.60;;;17.30;99.90;;;;;;4959238;28;20050;-73
2023/09/13 02:45:30;;;;;;;3.40;3.30;;;17.30;99.90;;;;;;4959951;28;20920;-75
2023/09/13 02:47:57;;;;;;;4.03;3.92;;;17.30;99.90;;;;;;4982056;28;20126;-75
2023/09/13 02:50:24;;;;;;;3.60;3.50;;;17.30;99.90;;;;;;4974602;28;20883;-75
2023/09/13 02:52:51;;;;;;;3.40;3.30;;;17.20;99.90;;;;;;4957220;28;20070;-76
2023/09/13 02:55:17;;;;;;;3.00;2.90;;;17.30;99.90;;;;;;4964697;28;20496;-74
2023/09/13 02:57:44;;;;;;;3.15;3.05;;;17.30;99.90;;;;;;4973548;28;20100;-76
2023/09/13 03:00:11;;;;;;;3.28;3.17;;;17.30;99.90;;;;;;4960206;28;20050;-76
2023/09/13 03:02:41;;;;;;;4.00;3.90;;;17.20;99.90;;;;;;4957934;28;20038;-74
2023/09/13 03:05:08;;;;;;;3.22;3.13;;;17.30;99.90;;;;;;4962942;28;20624;-76
2023/09/13 03:07:35;;;;;;;3.00;2.90;;;17.30;99.90;;;;;;4960497;28;20045;-75
2023/09/13 03:10:03;;;;;;;3.05;2.95;;;17.30;99.90;;;;;;4975632;28;20747;-75
2023/09/13 03:12:30;;;;;;;4.00;3.90;;;17.30;99.90;;;;;;4995403;28;20120;-75
2023/09/13 03:14:57;;;;;;;2.97;2.88;;;17.30;99.90;;;;;;4956739;28;20043;-76
2023/09/13 03:17:23;;;;;;;3.30;3.20;;;17.30;99.90;;;;;;4966205;28;20484;-76
2023/09/13 03:19:50;;;;;;;3.10;3.00;;;17.30;99.90;;;;;;4975700;28;20042;-75
2023/09/13 03:22:19;;;;;;;3.30;3.20;;;17.40;99.90;;;;;;4957482;28;20342;-74
2023/09/13 03:24:46;;;;;;;3.08;2.97;;;17.40;99.90;;;;;;4966561;28;20050;-74
2023/09/13 03:27:13;;;;;;;3.38;3.28;;;17.40;99.90;;;;;;4972444;28;20053;-76
2023/09/13 03:29:40;;;;;;;3.20;3.10;;;17.50;99.90;;;;;;4955978;28;20047;-75
2023/09/13 03:32:07;;;;;;;3.17;3.08;;;17.50;99.90;;;;;;4944793;28;20057;-74
2023/09/13 03:34:35;;;;;;;2.70;2.60;;;17.50;99.90;;;;;;4980699;28;20049;-76
2023/09/13 03:37:03;;;;;;;2.95;2.85;;;17.40;99.90;;;;;;4960015;28;20038;-75
2023/09/13 03:39:31;;;;;;;2.40;2.40;;;17.30;99.90;;;;;;4974375;28;20043;-75
2023/09/13 03:41:58;;;;;;;2.65;2.55;;;17.30;99.90;;;;;;4955350;28;20046;-74
2023/09/13 03:44:27;;;;;;;2.75;2.65;;;17.30;99.90;;;;;;4957145;28;20189;-75
2023/09/13 03:46:55;;;;;;;2.10;2.10;;;17.30;99.90;;;;;;4979088;28;20039;-75
2023/09/13 03:49:22;;;;;;;3.78;3.50;;;17.30;99.90;;;;;;4965807;28;20615;-76
2023/09/13 03:51:49;;;;;;;2.22;2.22;;;17.30;99.90;;;;;;4962124;28;20526;-75
2023/09/13 03:54:16;;;;;;;3.30;2.70;;;17.30;99.90;;;;;;4948873;28;20046;-76
2023/09/13 03:56:43;;;;;;;2.05;2.05;;;17.30;99.90;;;;;;4965189;28;20122;-74
2023/09/13 03:59:10;;;;;;;2.10;2.10;;;17.20;99.90;;;;;;4953198;28;20043;-75
2023/09/13 04:01:37;;;;;;;1.80;1.80;;;17.20;99.90;;;;;;4976658;28;20048;-75
2023/09/13 04:04:04;;;;;;;4.32;4.13;;;17.20;99.90;;;;;;4976961;28;20053;-74
2023/09/13 04:06:31;;;;;;;3.05;2.85;;;17.10;99.90;;;;;;4976930;28;20073;-75
2023/09/13 04:08:58;;;;;;;1.77;1.77;;;17.20;99.90;;;;;;4955781;28;20099;-77
2023/09/13 04:11:28;;;;;;;1.60;1.60;;;17.10;99.90;;;;;;4942871;28;20138;-74
2023/09/13 04:13:56;;;;;;;1.60;1.60;;;17.10;99.90;;;;;;4972784;28;20512;-76
2023/09/13 04:16:22;;;;;;;3.13;3.03;;;17.10;99.90;;;;;;4959377;28;20104;-76
2023/09/13 04:18:49;;;;;;;1.83;1.83;;;17.00;99.90;;;;;;4976036;28;20045;-75
2023/09/13 04:21:16;;;;;;;2.08;2.08;;;17.10;99.90;;;;;;4984189;28;20032;-75
2023/09/13 04:23:44;;;;;;;1.90;1.90;;;17.10;99.90;;;;;;4956947;28;20149;-74
2023/09/13 04:26:13;;;;;;;4.93;4.53;;;17.10;99.90;;;;;;4960489;28;20046;-75
2023/09/13 04:28:40;;;;;;;2.03;2.03;;;17.10;99.90;;;;;;4955009;28;20523;-74
2023/09/13 04:31:07;;;;;;;2.50;2.50;;;17.10;99.90;;;;;;4954860;28;20138;-75
2023/09/13 04:33:49;;;;;;;3.53;2.53;;;17.00;99.90;;;;;;4974596;28;20054;-74
2023/09/13 04:36:19;;;;;;;1.58;1.58;;;17.10;99.90;;;;;;4968881;28;20119;-76
2023/09/13 04:38:47;;;;;;;1.63;1.63;;;16.90;99.90;;;;;;4967257;28;20455;-75
2023/09/13 04:41:15;;;;;;;2.40;2.33;;;16.90;99.90;;;;;;4954623;28;20034;-76
2023/09/13 04:43:42;;;;;;;1.40;1.40;;;17.00;99.90;;;;;;4955997;28;20046;-74
2023/09/13 04:46:11;;;;;;;1.10;1.10;;;17.00;99.90;;;;;;4973208;28;20541;-75
2023/09/13 04:48:38;;;;;;;1.20;1.20;;;16.90;99.90;;;;;;4956374;28;20047;-76
2023/09/13 04:51:05;;;;;;;1.20;1.20;;;16.90;99.90;;;;;;4940904;28;20058;-75
2023/09/13 04:53:33;;;;;;;1.30;1.30;;;17.00;99.90;;;;;;4994578;28;20079;-74
2023/09/13 04:56:01;;;;;;;3.30;3.10;;;17.00;99.90;;;;;;4957017;28;20065;-74
2023/09/13 04:58:31;;;;;;;0.95;0.95;;;16.90;99.90;;;;;;4948383;28;20492;-74
2023/09/13 05:01:01;;;;;;;6.03;2.78;;;17.00;99.90;;;;;;4961272;28;20041;-74
2023/09/13 05:03:28;;;;;;;0.98;0.98;;;17.00;99.90;;;;;;4959387;28;20133;-74
2023/09/13 05:05:56;;;;;;;0.90;0.90;;;17.00;99.90;;;;;;4955187;28;20061;-73
2023/09/13 05:08:22;;;;;;;0.70;0.70;;;17.00;99.90;;;;;;4982220;28;20050;-73
2023/09/13 05:10:51;;;;;;;0.82;0.82;;;16.90;99.90;;;;;;4974837;28;20042;-74
2023/09/13 05:13:18;;;;;;;1.10;1.10;;;16.90;99.90;;;;;;4974764;28;20047;-74
2023/09/13 05:15:45;;;;;;;0.60;0.60;;;16.90;99.90;;;;;;4973235;28;20923;-73
2023/09/13 05:18:12;;;;;;;0.70;0.70;;;17.00;99.90;;;;;;4983141;28;20054;-75
2023/09/13 05:20:38;;;;;;;2.88;2.65;;;16.90;99.90;;;;;;4957151;28;20042;-73
2023/09/13 05:23:05;;;;;;;0.77;0.77;;;16.80;99.90;;;;;;4972564;28;20046;-74
2023/09/13 05:25:34;;;;;;;0.50;0.50;;;16.70;99.90;;;;;;4960984;28;20050;-75
2023/09/13 05:28:02;;;;;;;0.60;0.60;;;16.70;99.90;;;;;;4968711;28;20691;-75
2023/09/13 05:30:31;;;;;;;1.70;1.65;;;16.70;99.90;;;;;;4980159;28;20575;-75
2023/09/13 05:32:58;;;;;;;1.35;1.35;;;16.80;99.90;;;;;;4949323;28;20140;-75
2023/09/13 05:35:25;;;;;;;1.52;1.52;;;16.90;99.90;;;;;;4981790;28;20080;-75
2023/09/13 05:37:51;;;;;;;0.80;0.80;;;16.90;99.90;;;;;;4967506;28;20131;-74
2023/09/13 05:40:18;;;;;;;1.10;1.10;;;16.90;99.90;;;;;;5020485;28;20111;-75
2023/09/13 05:42:45;;;;;;;0.88;0.88;;;16.90;99.90;;;;;;4975810;28;20042;-76
2023/09/13 05:45:12;;;;;;;2.35;2.15;;;16.90;99.90;;;;;;4971584;28;20046;-76
2023/09/13 05:47:38;;;;;;;0.70;0.70;;;17.00;99.90;;;;;;4958148;28;20042;-76
2023/09/13 05:50:06;;;;;;;0.80;0.80;;;17.00;99.90;;;;;;4955664;28;20045;-75
2023/09/13 05:52:33;;;;;;;1.00;1.00;;;17.00;99.90;;;;;;4979710;28;20630;-76
2023/09/13 05:55:00;;;;;;;1.00;1.00;;;17.00;99.90;;;;;;4954809;28;20054;-76
2023/09/13 05:57:28;;;;;;;1.10;1.10;;;17.10;99.90;;;;;;4981493;28;20150;-78
2023/09/13 05:59:55;;;;;;;1.20;1.20;;;17.10;99.90;;;;;;5025499;28;20557;-76
2023/09/13 06:02:21;;;;;;;1.30;1.30;;;17.20;99.90;;;;;;4973241;28;20081;-75
2023/09/13 06:04:48;;;;;;;1.33;1.33;;;17.10;99.90;;;;;;4958028;28;20108;-74
2023/09/13 06:07:15;;;;;;;1.20;1.20;;;17.10;99.90;;;;;;4957873;28;20045;-76
2023/09/13 06:09:42;;;;;;;1.38;1.38;;;17.10;99.90;;;;;;4965371;28;20420;-75
2023/09/13 06:12:09;;;;;;;1.20;1.20;;;17.10;99.90;;;;;;4960300;28;20074;-76
2023/09/13 06:14:37;;;;;;;1.35;1.35;;;17.20;99.90;;;;;;4995020;28;20048;-76
2023/09/13 06:17:04;;;;;;;3.15;2.95;;;17.20;99.90;;;;;;4974772;28;20046;-76
2023/09/13 06:19:31;;;;;;;1.65;1.65;;;17.00;99.90;;;;;;4944569;28;20043;-75
2023/09/13 06:21:58;;;;;;;1.00;1.00;;;17.00;99.90;;;;;;4962357;28;20042;-76
2023/09/13 06:24:25;;;;;;;1.00;1.00;;;17.00;99.90;;;;;;4982431;28;20042;-75
2023/09/13 06:26:54;;;;;;;0.98;0.98;;;16.90;99.90;;;;;;4968923;28;20080;-74
2023/09/13 06:29:20;;;;;;;0.90;0.90;;;16.90;99.90;;;;;;4980232;28;20104;-75
2023/09/13 06:31:48;;;;;;;1.30;1.30;;;16.80;99.90;;;;;;4976801;28;20225;-76
2023/09/13 06:34:30;;;;;;;1.00;1.00;;;16.70;99.90;;;;;;4974706;28;20338;-75
2023/09/13 06:36:58;;;;;;;1.00;1.00;;;16.80;99.90;;;;;;4958037;28;20161;-80
2023/09/13 06:39:26;;;;;;;0.95;0.95;;;16.80;99.90;;;;;;4971279;28;20074;-79
2023/09/13 06:41:54;;;;;;;1.15;1.15;;;16.80;99.90;;;;;;4967048;28;20123;-80
2023/09/13 06:44:21;;;;;;;1.00;1.00;;;16.90;99.90;;;;;;4985920;28;20042;-80
2023/09/13 06:47:08;;;;;;;0.93;0.93;;;16.90;99.90;;;;;;4962174;28;21242;-79
2023/09/13 06:49:35;;;;;;;1.10;1.10;;;17.00;99.90;;;;;;4969004;28;20039;-80
2023/09/13 06:52:04;;;;;;;1.00;1.00;;;17.00;99.90;;;;;;4985797;28;20042;-79
2023/09/13 06:54:34;;;;;;;1.70;1.70;;;17.00;99.90;;;;;;4974366;28;20545;-81
2023/09/13 06:57:08;;;;;;;1.10;1.10;;;16.90;99.90;;;;;;4960630;28;20046;-80
2023/09/13 06:59:41;;;;;;;1.60;1.60;;;17.00;99.90;;;;;;4965219;28;20089;-79
2023/09/13 07:02:18;;;;;;;1.33;1.27;;;17.10;99.90;;;;;;4962503;28;20804;-79
2023/09/13 07:04:48;;;;;;;1.02;1.02;;;17.10;99.90;;;;;;4948470;28;20507;-80
2023/09/13 07:07:35;;;;;;;1.10;1.10;;;17.10;99.90;;;;;;4963432;28;20070;-80
2023/09/13 07:10:05;;;;;;;1.33;1.33;;;17.20;99.90;;;;;;4948162;28;20073;-79
2023/09/13 07:12:32;;;;;;;1.10;1.10;;;17.30;99.90;;;;;;4979007;28;20046;-79
2023/09/13 07:14:59;;;;;;;1.23;1.20;;;17.30;99.90;;;;;;4958446;28;20132;-79
2023/09/13 07:17:26;;;;;;;1.10;1.10;;;17.30;99.90;;;;;;4973296;28;20141;-79
2023/09/13 07:19:55;;;;;;;1.00;1.00;;;17.30;99.90;;;;;;4974599;28;20102;-80
2023/09/13 07:22:23;;;;;;;1.00;1.00;;;17.30;99.90;;;;;;4963784;28;20058;-79
2023/09/13 07:24:50;;;;;;;1.10;1.10;;;17.30;99.90;;;;;;4957408;28;20042;-80
2023/09/13 07:27:17;;;;;;;1.10;1.10;;;17.40;99.90;;;;;;4966200;28;20046;-80
2023/09/13 07:29:43;;;;;;;1.65;1.65;;;17.50;99.90;;;;;;4963062;28;20045;-80
2023/09/13 07:32:10;;;;;;;1.30;1.30;;;17.60;99.90;;;;;;4967662;28;20228;-79
2023/09/13 07:34:37;;;;;;;1.40;1.40;;;17.60;99.90;;;;;;4966006;28;20046;-80
2023/09/13 07:37:04;;;;;;;1.15;1.15;;;17.60;99.90;;;;;;4957846;28;20049;-79
2023/09/13 07:39:30;;;;;;;1.20;1.20;;;17.60;99.90;;;;;;4961358;28;20058;-79
2023/09/13 07:41:58;;;;;;;2.00;1.90;;;17.60;99.90;;;;;;4982119;28;20605;-79
2023/09/13 07:44:25;;;;;;;1.40;1.40;;;17.70;99.90;;;;;;4965921;28;20149;-79
2023/09/13 07:46:52;;;;;;;1.92;1.92;;;17.70;99.90;;;;;;4991826;28;20042;-80
2023/09/13 07:49:19;;;;;;;1.30;1.30;;;17.70;99.90;;;;;;4962810;28;20151;-78
2023/09/13 07:51:48;;;;;;;2.58;2.47;;;17.70;99.90;;;;;;4961995;28;20035;-79
2023/09/13 07:54:15;;;;;;;1.10;1.10;;;17.70;99.90;;;;;;4957616;28;20169;-79
2023/09/13 07:56:45;;;;;;;1.33;1.33;;;17.70;99.90;;;;;;4975887;28;20495;-79
2023/09/13 07:59:17;;;;;;;1.77;1.77;;;17.80;99.90;;;;;;4971853;28;20137;-80
2023/09/13 08:01:44;;;;;;;1.83;1.73;;;17.80;99.90;;;;;;4971336;28;20038;-78
2023/09/13 08:04:11;;;;;;;1.00;1.00;;;17.90;99.90;;;;;;4973730;28;20566;-79
2023/09/13 08:06:41;;;;;;;1.27;1.27;;;17.90;99.90;;;;;;4978756;28;20071;-80
2023/09/13 08:09:08;;;;;;;5.80;5.38;;;17.90;99.90;;;;;;4974823;28;20390;-79
2023/09/13 08:11:35;;;;;;;1.50;1.50;;;17.90;99.90;;;;;;4985973;28;20042;-80
2023/09/13 08:14:02;;;;;;;1.20;1.20;;;17.80;99.90;;;;;;4975449;28;20077;-79
2023/09/13 08:16:29;;;;;;;2.65;2.55;;;17.80;99.90;;;;;;4978551;28;20050;-79
2023/09/13 08:18:56;;;;;;;0.90;0.90;;;17.80;99.90;;;;;;4942735;28;20069;-79
2023/09/13 08:21:23;;;;;;;1.10;1.10;;;17.80;99.90;;;;;;4966300;28;20046;-79
2023/09/13 08:23:49;;;;;;;0.95;0.95;;;17.80;99.90;;;;;;4963093;28;20038;-78
2023/09/13 08:26:16;;;;;;;1.10;1.10;;;17.70;99.90;;;;;;4960131;28;20035;-78
2023/09/13 08:28:53;;;;;;;1.20;1.20;;;17.80;99.90;;;;;;4962483;28;20042;-80
2023/09/13 08:31:23;;;;;;;0.90;0.90;;;17.80;99.90;;;;;;4962564;28;20057;-81
2023/09/13 08:33:50;;;;;;;1.45;1.45;;;17.80;99.90;;;;;;4948103;28;20050;-79
2023/09/13 08:36:17;;;;;;;1.30;1.30;;;17.90;99.90;;;;;;4983929;28;20464;-77
2023/09/13 08:38:44;;;;;;;1.20;1.20;;;17.90;99.90;;;;;;4960067;28;20045;-78
2023/09/13 08:41:15;;;;;;;1.20;1.20;;;18.00;99.90;;;;;;4971367;28;20129;-78
2023/09/13 08:43:43;;;;;;;2.15;2.05;;;17.90;99.90;;;;;;4972805;28;20054;-77
2023/09/13 08:46:13;;;;;;;1.30;1.30;;;18.00;99.90;;;;;;4940213;28;20081;-77
2023/09/13 08:48:41;;;;;;;1.65;1.55;;;18.10;99.90;;;;;;5042575;28;20043;-77
2023/09/13 08:51:10;;;;;;;4.13;2.08;;;18.00;99.90;;;;;;4966932;28;20134;-77
2023/09/13 08:53:39;;;;;;;1.05;1.05;;;18.00;99.90;;;;;;4982101;28;20102;-78
2023/09/13 08:56:07;;;;;;;0.80;0.80;;;18.00;99.90;;;;;;4967375;28;20046;-77
2023/09/13 08:58:35;;;;;;;0.88;0.88;;;17.90;99.90;;;;;;4957710;28;20077;-78
2023/09/13 09:01:04;;;;;;;0.70;0.70;;;17.80;99.90;;;;;;4975597;28;20451;-77
2023/09/13 09:03:34;;;;;;;1.30;1.30;;;17.80;99.90;;;;;;4975102;28;20051;-77
2023/09/13 09:06:03;;;;;;;0.95;0.95;;;17.80;99.90;;;;;;4967953;28;20649;-77
2023/09/13 09:08:31;;;;;;;1.38;1.38;;;17.90;99.90;;;;;;4980356;28;20059;-77
2023/09/13 09:10:59;;;;;;;0.82;0.82;;;18.00;99.90;;;;;;4959667;28;20042;-78
2023/09/13 09:13:28;;;;;;;0.60;0.60;;;18.10;99.90;;;;;;4967007;28;20043;-77
2023/09/13 09:15:58;;;;;;;0.80;0.80;;;18.10;99.90;;;;;;4972488;28;20046;-77
2023/09/13 09:18:27;;;;;;;1.85;1.85;;;17.90;99.90;;;;;;4972766;28;20044;-77
2023/09/13 09:20:56;;;;;;;1.17;1.17;;;17.90;99.90;;;;;;4960619;28;20034;-78
2023/09/13 09:23:24;;;;;;;0.90;0.90;;;17.90;99.90;;;;;;4964059;28;20135;-79
2023/09/13 09:25:52;;;;;;;2.60;2.25;;;18.00;99.90;;;;;;4959148;28;20130;-79
2023/09/13 09:28:21;;;;;;;0.82;0.82;;;18.00;99.90;;;;;;4950392;28;20050;-78
2023/09/13 09:30:51;;;;;;;0.80;0.80;;;17.90;99.90;;;;;;4975535;28;20118;-79
2023/09/13 09:33:27;;;;;;;0.60;0.60;;;17.90;99.90;;;;;;4960841;28;20046;-78
2023/09/13 09:35:59;;;;;;;1.17;1.13;;;17.90;99.90;;;;;;4954243;28;20042;-78
2023/09/13 09:38:28;;;;;;;1.65;1.50;;;18.00;99.90;;;;;;4958262;28;20050;-77
2023/09/13 09:40:57;;;;;;;1.20;1.20;;;18.10;99.90;;;;;;4974188;28;20038;-77
2023/09/13 09:43:24;;;;;;;0.63;0.63;;;18.10;99.90;;;;;;4982466;28;20428;-77
2023/09/13 09:45:51;;;;;;;0.50;0.50;;;18.20;99.90;;;;;;4959908;28;20463;-77
2023/09/13 09:48:19;;;;;;;1.15;1.15;;;18.20;99.90;;;;;;4958278;28;20052;-78
2023/09/13 09:50:48;;;;;;;0.90;0.90;;;18.30;99.90;;;;;;4954549;28;20043;-77
2023/09/13 09:53:17;;;;;;;0.75;0.75;;;18.40;99.90;;;;;;4974800;28;20046;-76
2023/09/13 09:55:45;;;;;;;0.50;0.50;;;18.70;99.90;;;;;;4960327;28;20041;-76
2023/09/13 09:58:12;;;;;;;1.83;1.80;;;19.00;99.90;;;;;;4969536;28;20045;-77
2023/09/13 10:00:45;;;;;;;0.63;0.63;;;19.10;99.90;;;;;;4957949;28;20108;-76
2023/09/13 10:03:17;;;;;;;1.98;1.85;;;19.20;99.90;;;;;;4962125;28;20046;-76
2023/09/13 10:06:15;;;;;;;1.35;1.35;;;19.30;99.90;;;;;;4962279;28;20134;-77
2023/09/13 10:08:47;;;;;;;1.88;1.88;;;19.40;99.90;;;;;;4963674;28;20054;-77
2023/09/13 10:11:22;;;;;;;5.53;2.72;;;19.30;99.90;;;;;;4970584;28;20051;-77
2023/09/13 10:13:50;;;;;;;3.75;3.45;;;19.30;99.90;;;;;;4970265;28;20103;-77
2023/09/13 10:16:17;;;;;;;4.03;3.83;;;19.20;99.90;;;;;;4963392;28;20047;-77
2023/09/13 10:18:57;;;;;;;2.35;2.35;;;19.20;99.90;;;;;;4962831;28;20038;-77
2023/09/13 10:21:32;;;;;;;2.65;2.55;;;19.10;99.90;;;;;;4974850;28;20043;-77
2023/09/13 10:24:10;;;;;;;1.48;1.48;;;19.00;99.90;;;;;;5042553;28;20057;-78
2023/09/13 10:26:38;;;;;;;4.13;3.80;;;18.80;99.90;;;;;;4971161;28;20065;-77
2023/09/13 10:29:14;;;;;;;4.65;4.35;;;18.60;99.90;;;;;;4988590;28;20042;-77
2023/09/13 10:31:44;;;;;;;2.28;2.20;;;18.60;99.90;;;;;;4963561;28;20048;-77
2023/09/13 10:34:25;;;;;;;1.70;1.70;;;18.90;99.90;;;;;;4961450;28;20658;-77
2023/09/13 10:37:23;;;;;;;5.80;5.50;;;19.20;99.90;;;;;;4974164;28;20725;-77
2023/09/13 10:40:12;;;;;;;4.57;4.28;;;19.10;99.90;;;;;;4959884;28;20049;-77
2023/09/13 10:42:40;;;;;;;3.05;2.95;;;19.10;99.90;;;;;;4967398;28;20054;-78
2023/09/13 10:45:08;;;;;;;1.80;1.77;;;18.80;99.90;;;;;;4965187;28;20598;-80
2023/09/13 10:47:37;;;;;;;2.30;2.25;;;18.80;99.90;;;;;;4963847;28;20595;-79
2023/09/13 10:50:07;;;;;;;2.08;2.05;;;18.80;99.90;;;;;;4975000;28;20130;-78
2023/09/13 10:52:35;;;;;;;1.88;1.83;;;18.90;99.90;;;;;;4976117;28;20136;-78
2023/09/13 10:55:06;;;;;;;1.25;1.25;;;19.40;99.90;;;;;;4963202;28;20040;-77
2023/09/13 10:57:34;;;;;;;4.30;4.18;;;19.70;99.90;;;;;;4957647;28;20051;-77
2023/09/13 11:00:12;;;;;;;9.07;8.35;;;19.90;99.90;;;;;;4956433;28;20062;-77
2023/09/13 11:02:41;;;;;;;20.27;5.85;;;19.90;99.90;;;;;;4964043;28;20055;-77
2023/09/13 11:05:10;;;;;;;5.38;5.18;;;20.20;99.90;;;;;;4960715;28;20661;-78
2023/09/13 11:07:41;;;;;;;8.88;8.13;;;20.40;99.90;;;;;;4971383;28;20047;-78
2023/09/13 11:10:15;;;;;;;7.60;7.30;;;20.60;99.90;;;;;;4976078;28;20038;-78
2023/09/13 11:12:48;;;;;;;8.15;7.88;;;20.50;99.90;;;;;;4981720;28;20190;-78
2023/09/13 11:15:24;;;;;;;6.50;6.30;;;20.20;99.90;;;;;;4971547;28;20516;-78
2023/09/13 11:17:55;;;;;;;;;;;20.10;99.90;;;;;;4963301;28;20048;-79
2023/09/13 11:20:36;;;;;;;7.63;7.43;;;19.90;99.90;;;;;;4968674;28;19926;-78
2023/09/13 11:23:12;;;;;;;6.68;6.47;;;20.00;99.90;;;;;;4962400;28;20439;-78
2023/09/13 11:25:50;;;;;;;10.07;9.55;;;19.90;99.90;;;;;;4966596;28;20415;-78
2023/09/13 11:28:33;;;;;;;9.65;9.00;;;19.70;99.90;;;;;;4958363;28;20051;-78
2023/09/13 11:31:02;;;;;;;9.65;9.35;;;20.00;99.90;;;;;;4969847;28;20551;-78
2023/09/13 11:33:29;;;;;;;9.00;8.70;;;20.20;99.90;;;;;;4961544;28;20064;-78
2023/09/13 11:35:58;;;;;;;10.70;10.30;;;20.20;99.90;;;;;;4957046;28;20046;-78
2023/09/13 11:38:25;;;;;;;9.45;9.15;;;20.10;99.90;;;;;;4945424;28;20077;-78
2023/09/13 11:40:56;;;;;;;9.65;9.35;;;20.00;99.90;;;;;;4957647;28;20042;-78
2023/09/13 11:43:25;;;;;;;11.05;10.65;;;20.00;99.90;;;;;;4979682;28;20106;-79
2023/09/13 11:46:00;;;;;;;12.05;11.38;;;20.00;99.90;;;;;;4969105;28;20042;-79
2023/09/13 11:48:29;;;;;;;12.10;11.60;;;20.10;99.90;;;;;;4944647;28;20117;-78
2023/09/13 11:51:09;;;;;;;14.07;13.48;;;20.10;99.90;;;;;;4975591;28;20807;-78
2023/09/13 11:53:50;;;;;;;15.05;14.35;;;20.10;99.90;;;;;;4974871;28;20135;-78
2023/09/13 11:56:33;;;;;;;14.70;14.10;;;20.20;99.90;;;;;;5036474;28;20405;-78
2023/09/13 11:59:16;;;;;;;14.23;13.63;;;20.40;99.90;;;;;;4960259;28;20129;-78
2023/09/13 12:01:48;;;;;;;12.87;12.37;;;20.30;99.90;;;;;;4950804;28;20038;-78
2023/09/13 12:04:22;;;;;;;10.48;10.07;;;19.90;99.90;;;;;;4959767;28;20119;-79
2023/09/13 12:07:10;;;;;;;9.52;9.23;;;19.30;99.90;;;;;;4961609;28;20558;-78
2023/09/13 12:09:38;;;;;;;7.50;7.30;;;18.60;99.90;;;;;;4953173;28;21562;-79
2023/09/13 12:12:08;;;;;;;4.50;4.40;;;18.30;99.90;;;;;;4961383;28;20064;-79
2023/09/13 12:14:38;;;;;;;4.70;4.60;;;18.40;99.90;;;;;;4961950;28;21504;-77
2023/09/13 12:17:39;;;;;;;4.40;4.30;;;18.40;99.90;;;;;;4961441;28;20057;-77
2023/09/13 12:20:10;;;;;;;4.22;4.13;;;18.50;99.90;;;;;;4973891;28;20167;-77
2023/09/13 12:22:41;;;;;;;5.60;5.40;;;18.60;99.90;;;;;;4956481;28;20058;-77
2023/09/13 12:25:12;;;;;;;6.10;5.90;;;18.70;99.90;;;;;;4959566;28;20653;-76
2023/09/13 12:27:38;;;;;;;6.30;6.00;;;18.70;99.90;;;;;;4970015;28;20050;-77
2023/09/13 12:30:17;;;;;;;13.82;12.63;;;19.00;99.90;;;;;;4962320;28;20081;-77
2023/09/13 12:32:45;;;;;;;17.38;16.00;;;19.50;99.90;;;;;;4969497;28;20046;-76
2023/09/13 12:35:12;;;;;;;17.60;16.30;;;19.60;99.90;;;;;;4972609;28;20101;-77
2023/09/13 12:37:39;;;;;;;20.55;18.52;;;19.70;99.90;;;;;;4983731;28;20599;-77
2023/09/13 12:40:15;;;;;;;19.02;17.50;;;19.80;99.90;;;;;;4952594;28;20047;-76
2023/09/13 12:42:42;;;;;;;16.80;15.60;;;19.50;99.90;;;;;;4965785;28;20626;-77
2023/09/13 12:45:09;;;;;;;14.55;13.68;;;19.00;99.90;;;;;;4957078;28;20042;-76
2023/09/13 12:47:37;;;;;;;15.70;14.38;;;18.40;99.90;;;;;;4957990;28;20050;-77
2023/09/13 12:50:06;;;;;;;15.55;14.35;;;17.90;99.90;;;;;;4964360;28;20037;-78
2023/09/13 12:52:53;;;;;;;16.77;15.30;;;17.90;99.90;;;;;;4964689;28;20065;-77
2023/09/13 12:55:24;;;;;;;16.73;15.43;;;17.60;99.90;;;;;;4978952;28;20081;-76
2023/09/13 12:57:52;;;;;;;17.83;16.35;;;17.30;99.90;;;;;;4967965;28;20053;-77